Time,TemperatureF,DewpointF,PressureIn,WindDirection,WindDirectionDegrees,WindSpeedMPH,WindSpeedGustMPH,Humidity,HourlyPrecipIn,Conditions,Clouds,dailyrainin,SoftwareType,DateUTC
2013-02-27 00:00:00,36.6,36.6,28.05,South,182,3.5,3.5,100,0.00,,,0.00,WeatherDisplay:10.37,2013-02-27 05:00:00,
2013-02-27 00:01:00,36.6,36.6,28.04,South,182,3.5,3.5,100,0.00,,,0.00,WeatherDisplay:10.37,2013-02-27 05:01:00,
2013-02-27 00:06:00,36.6,36.6,28.04,South,180,5.8,5.8,100,0.00,,,0.00,WeatherDisplay:10.37,2013-02-27 05:06:00,
2013-02-27 00:11:00,36.9,36.9,28.05,South,173,4.6,4.6,100,0.00,,,0.00,WeatherDisplay:10.37,2013-02-27 05:11:00,
2013-02-27 00:17:00,37.3,37.3,28.03,South,178,4.6,4.6,100,0.00,,,0.00,WeatherDisplay:10.37,2013-02-27 05:17:00,
2013-02-27 00:22:00,37.5,37.5,28.04,South,188,5.8,5.8,100,0.00,,,0.00,WeatherDisplay:10.37,2013-02-27 05:22:00,
2013-02-27 00:27:00,37.6,37.6,28.03,South,188,3.5,3.5,100,0.00,,,0.00,WeatherDisplay:10.37,2013-02-27 05:27:00,
2013-02-27 00:32:00,37.5,37.5,28.03,SSW,209,3.5,3.5,100,0.00,,,0.00,WeatherDisplay:10.37,2013-02-27 05:32:00,
2013-02-27 00:38:00,37.2,37.2,28.03,SSW,208,4.6,4.6,100,0.00,,,0.00,WeatherDisplay:10.37,2013-02-27 05:38:00,
2013-02-27 00:43:00,36.8,36.8,28.03,South,171,3.5,3.5,100,0.00,,,0.00,WeatherDisplay:10.37,2013-02-27 05:43:00,
2013-02-27 00:48:00,36.6,36.6,28.03,South,171,3.5,3.5,100,0.00,,,0.00,WeatherDisplay:10.37,2013-02-27 05:48:00,
2013-02-27 00:53:00,36.6,36.6,28.03,South,171,0.0,0.0,100,0.00,,,0.00,WeatherDisplay:10.37,2013-02-27 05:53:00,
2013-02-27 00:58:00,36.6,36.6,28.03,South,171,0.0,0.0,100,0.00,,,0.00,WeatherDisplay:10.37,2013-02-27 05:58:00,
2013-02-27 01:04:00,36.6,36.6,28.04,South,171,1.0,0.0,100,0.00,,,0.00,WeatherDisplay:10.37,2013-02-27 06:04:00,
2013-02-27 01:09:00,36.6,36.6,28.04,South,171,2.3,2.3,100,0.00,,,0.00,WeatherDisplay:10.37,2013-02-27 06:09:00,
2013-02-27 01:14:00,36.7,36.7,28.04,South,171,0.0,0.0,100,0.00,,,0.00,WeatherDisplay:10.37,2013-02-27 06:14:00,
2013-02-27 01:19:00,36.7,36.7,28.04,South,171,3.5,3.5,100,0.00,,,0.00,WeatherDisplay:10.37,2013-02-27 06:19:00,
2013-02-27 01:24:00,36.8,36.8,28.04,South,171,3.5,3.5,100,0.00,,,0.00,WeatherDisplay:10.37,2013-02-27 06:24:00,
2013-02-27 01:30:00,36.8,36.8,28.05,South,171,3.5,3.5,100,0.00,,,0.00,WeatherDisplay:10.37,2013-02-27 06:30:00,
2013-02-27 01:35:00,36.7,36.7,28.05,South,172,4.0,4.0,100,0.00,,,0.00,WeatherDisplay:10.37,2013-02-27 06:35:00,
2013-02-27 01:40:00,36.7,36.7,28.05,South,188,3.5,3.5,100,0.00,,,0.00,WeatherDisplay:10.37,2013-02-27 06:40:00,
2013-02-27 01:45:00,36.6,36.6,28.05,South,180,4.0,4.0,100,0.00,,,0.00,WeatherDisplay:10.37,2013-02-27 06:45:00,
2013-02-27 01:50:00,36.9,36.9,28.05,South,176,6.9,6.9,100,0.00,,,0.00,WeatherDisplay:10.37,2013-02-27 06:50:00,
2013-02-27 01:56:00,37.2,37.2,28.04,SSE,159,6.9,6.9,100,0.00,CLR,CLR,0.00,WeatherDisplay:10.37,2013-02-27 06:56:00,
2013-02-27 02:01:00,37.2,37.2,28.05,South,170,3.5,3.5,100,0.00,,,0.00,WeatherDisplay:10.37,2013-02-27 07:01:00,
2013-02-27 02:06:00,37.1,37.1,28.04,South,184,4.6,4.6,100,0.00,,,0.00,WeatherDisplay:10.37,2013-02-27 07:06:00,
2013-02-27 02:11:00,37.0,37.0,28.04,SSW,200,5.8,5.8,100,0.00,,,0.00,WeatherDisplay:10.37,2013-02-27 07:11:00,
2013-02-27 02:16:00,37.0,37.0,28.04,South,170,7.0,7.0,100,0.00,,,0.00,WeatherDisplay:10.37,2013-02-27 07:16:00,
2013-02-27 02:22:00,37.3,37.3,28.04,South,171,5.8,5.8,100,0.00,,,0.00,WeatherDisplay:10.37,2013-02-27 07:22:00,
2013-02-27 02:27:00,37.5,37.5,28.04,SSE,155,9.2,9.2,100,0.00,CLR,CLR,0.00,WeatherDisplay:10.37,2013-02-27 07:27:00,
2013-02-27 02:32:00,37.6,37.6,28.04,South,169,4.0,4.0,100,0.00,CLR,CLR,0.00,WeatherDisplay:10.37,2013-02-27 07:32:00,
2013-02-27 02:37:00,37.5,37.5,28.04,South,170,4.6,4.6,100,0.00,,,0.00,WeatherDisplay:10.37,2013-02-27 07:37:00,
2013-02-27 02:43:00,37.3,37.3,28.04,South,187,4.6,4.6,100,0.00,,,0.00,WeatherDisplay:10.37,2013-02-27 07:43:00,
2013-02-27 02:48:00,37.3,37.3,28.03,South,186,4.6,4.6,100,0.00,,,0.00,WeatherDisplay:10.37,2013-02-27 07:48:00,
2013-02-27 02:53:00,37.2,37.2,28.03,South,187,4.6,4.6,100,0.00,,,0.00,WeatherDisplay:10.37,2013-02-27 07:53:00,
2013-02-27 02:58:00,37.2,37.2,28.03,South,175,3.5,3.5,100,0.00,,,0.00,WeatherDisplay:10.37,2013-02-27 07:58:00,
2013-02-27 03:03:00,37.2,37.2,28.03,South,174,4.6,4.6,100,0.00,,,0.00,WeatherDisplay:10.37,2013-02-27 08:03:00,
2013-02-27 03:08:00,37.2,37.2,28.03,SSW,193,6.9,6.9,100,0.00,CLR,CLR,0.00,WeatherDisplay:10.37,2013-02-27 08:08:00,
2013-02-27 03:14:00,37.2,37.2,28.03,South,189,5.8,5.8,100,0.00,,,0.00,WeatherDisplay:10.37,2013-02-27 08:14:00,
2013-02-27 03:19:00,37.4,37.4,28.03,South,170,3.5,3.5,100,0.00,,,0.00,WeatherDisplay:10.37,2013-02-27 08:19:00,
2013-02-27 03:24:00,37.5,37.5,28.03,South,183,5.8,5.8,100,0.00,CLR,CLR,0.00,WeatherDisplay:10.37,2013-02-27 08:24:00,
2013-02-27 03:29:00,37.5,37.5,28.03,SSW,196,6.0,6.0,100,0.00,CLR,CLR,0.00,WeatherDisplay:10.37,2013-02-27 08:29:00,
2013-02-27 03:34:00,37.4,37.4,28.03,South,188,5.0,5.0,100,0.00,,,0.00,WeatherDisplay:10.37,2013-02-27 08:34:00,
2013-02-27 03:40:00,37.4,37.4,28.03,SSW,205,2.3,2.3,100,0.00,,,0.00,WeatherDisplay:10.37,2013-02-27 08:40:00,
2013-02-27 03:45:00,37.4,37.4,28.03,South,187,8.1,8.1,100,0.00,,,0.00,WeatherDisplay:10.37,2013-02-27 08:45:00,
2013-02-27 03:50:00,37.3,37.3,28.04,South,189,4.6,4.6,100,0.00,,,0.00,WeatherDisplay:10.37,2013-02-27 08:50:00,
2013-02-27 03:55:00,37.1,37.1,28.03,South,174,9.0,9.0,100,0.00,,,0.00,WeatherDisplay:10.37,2013-02-27 08:55:00,
2013-02-27 04:00:00,37.1,37.1,28.05,SSW,200,6.9,6.9,100,0.00,,,0.00,WeatherDisplay:10.37,2013-02-27 09:00:00,
2013-02-27 04:06:00,37.1,37.1,28.05,South,177,3.5,3.5,100,0.00,,,0.00,WeatherDisplay:10.37,2013-02-27 09:06:00,
2013-02-27 04:11:00,37.2,37.2,28.04,SSW,193,4.6,4.6,100,0.00,,,0.00,WeatherDisplay:10.37,2013-02-27 09:11:00,
2013-02-27 04:16:00,37.2,37.2,28.04,South,190,6.0,6.0,100,0.00,,,0.00,WeatherDisplay:10.37,2013-02-27 09:16:00,
2013-02-27 04:21:00,37.2,37.2,28.05,South,174,5.8,5.8,100,0.00,,,0.00,WeatherDisplay:10.37,2013-02-27 09:21:00,
2013-02-27 04:26:00,37.1,37.1,28.05,South,175,3.5,3.5,100,0.00,,,0.00,WeatherDisplay:10.37,2013-02-27 09:26:00,
2013-02-27 04:32:00,37.0,37.0,28.06,SSE,168,3.5,3.5,100,0.00,,,0.00,WeatherDisplay:10.37,2013-02-27 09:32:00,
2013-02-27 04:37:00,37.0,37.0,28.05,SSW,210,5.0,5.0,100,0.00,,,0.00,WeatherDisplay:10.37,2013-02-27 09:37:00,
2013-02-27 04:42:00,37.1,37.1,28.06,WSW,247,3.5,3.5,100,0.00,,,0.00,WeatherDisplay:10.37,2013-02-27 09:42:00,
2013-02-27 04:47:00,37.1,37.1,28.06,WSW,248,2.3,2.3,100,0.00,,,0.00,WeatherDisplay:10.37,2013-02-27 09:47:00,
2013-02-27 04:53:00,37.1,37.1,28.06,WSW,248,0.0,0.0,100,0.00,,,0.00,WeatherDisplay:10.37,2013-02-27 09:53:00,
2013-02-27 04:58:00,37.0,37.0,28.06,WSW,237,1.2,0.0,100,0.00,,,0.00,WeatherDisplay:10.37,2013-02-27 09:58:00,
2013-02-27 05:03:00,37.0,37.0,28.07,SW,215,1.2,0.0,100,0.00,,,0.00,WeatherDisplay:10.37,2013-02-27 10:03:00,
2013-02-27 05:08:00,36.9,36.9,28.07,SW,216,2.3,2.3,100,0.00,,,0.00,WeatherDisplay:10.37,2013-02-27 10:08:00,
2013-02-27 05:13:00,36.9,36.9,28.07,SW,216,3.5,3.5,100,0.00,,,0.00,WeatherDisplay:10.37,2013-02-27 10:13:00,
2013-02-27 05:19:00,36.7,36.7,28.07,South,175,6.9,6.9,100,0.00,,,0.00,WeatherDisplay:10.37,2013-02-27 10:19:00,
2013-02-27 05:24:00,36.5,36.5,28.07,SSW,198,0.0,0.0,100,0.00,,,0.00,WeatherDisplay:10.37,2013-02-27 10:24:00,
2013-02-27 05:29:00,36.3,36.3,28.08,SSW,198,0.0,0.0,100,0.00,,,0.00,WeatherDisplay:10.37,2013-02-27 10:29:00,
2013-02-27 05:34:00,36.2,36.2,28.08,SSW,198,0.0,0.0,100,0.00,,,0.00,WeatherDisplay:10.37,2013-02-27 10:34:00,
2013-02-27 05:39:00,36.1,36.1,28.08,SSW,198,1.2,0.0,100,0.00,,,0.00,WeatherDisplay:10.37,2013-02-27 10:39:00,
2013-02-27 05:44:00,35.9,35.9,28.09,South,190,5.0,5.0,100,0.00,,,0.00,WeatherDisplay:10.37,2013-02-27 10:44:00,
2013-02-27 05:50:00,35.8,35.8,28.09,SW,223,2.3,2.3,100,0.00,,,0.00,WeatherDisplay:10.37,2013-02-27 10:50:00,
2013-02-27 05:55:00,35.5,35.5,28.09,SW,223,3.5,3.5,100,0.00,,,0.00,WeatherDisplay:10.37,2013-02-27 10:55:00,
2013-02-27 06:00:00,35.3,35.3,28.10,SW,223,3.5,3.5,100,0.00,,,0.00,WeatherDisplay:10.37,2013-02-27 11:00:00,
2013-02-27 06:05:00,35.4,35.4,28.10,SW,223,1.2,1.2,100,0.00,,,0.00,WeatherDisplay:10.37,2013-02-27 11:05:00,
2013-02-27 06:10:00,35.5,35.5,28.10,SW,223,2.3,2.3,100,0.00,,,0.00,WeatherDisplay:10.37,2013-02-27 11:10:00,
2013-02-27 06:15:00,35.6,35.6,28.10,SSW,193,3.5,3.5,100,0.00,,,0.00,WeatherDisplay:10.37,2013-02-27 11:15:00,
2013-02-27 06:21:00,35.8,35.8,28.10,South,174,9.2,9.2,100,0.00,,,0.00,WeatherDisplay:10.37,2013-02-27 11:21:00,
2013-02-27 06:26:00,35.9,35.9,28.10,South,186,5.8,5.8,100,0.00,,,0.00,WeatherDisplay:10.37,2013-02-27 11:26:00,
2013-02-27 06:31:00,36.2,36.2,28.10,SSW,196,5.8,5.8,100,0.00,CLR,CLR,0.00,WeatherDisplay:10.37,2013-02-27 11:31:00,
2013-02-27 06:36:00,36.2,36.2,28.11,SSE,161,4.6,4.6,100,0.00,CLR,CLR,0.00,WeatherDisplay:10.37,2013-02-27 11:36:00,
2013-02-27 06:41:00,36.0,36.0,28.11,SSE,156,6.0,6.0,100,0.00,,,0.00,WeatherDisplay:10.37,2013-02-27 11:41:00,
2013-02-27 06:47:00,35.9,35.9,28.11,SSE,164,6.0,6.0,100,0.00,,,0.00,WeatherDisplay:10.37,2013-02-27 11:47:00,
2013-02-27 06:52:00,35.6,35.6,28.11,SSE,155,4.6,4.6,100,0.00,CLR,CLR,0.00,WeatherDisplay:10.37,2013-02-27 11:52:00,
2013-02-27 06:57:00,35.3,35.3,28.12,South,181,3.5,3.5,100,0.00,,,0.00,WeatherDisplay:10.37,2013-02-27 11:57:00,
2013-02-27 07:02:00,35.2,35.2,28.26,South,179,9.2,9.2,100,0.00,,,0.00,WeatherDisplay:10.37,2013-02-27 12:02:00,
2013-02-27 07:07:00,35.1,35.1,28.29,SSE,168,6.0,6.0,100,0.00,,,0.00,WeatherDisplay:10.37,2013-02-27 12:07:00,
2013-02-27 07:13:00,35.3,35.3,28.30,South,178,3.5,3.5,100,0.00,CLR,CLR,0.00,WeatherDisplay:10.37,2013-02-27 12:13:00,
2013-02-27 07:18:00,35.6,35.6,28.29,South,170,4.6,4.6,100,0.00,CLR,CLR,0.00,WeatherDisplay:10.37,2013-02-27 12:18:00,
2013-02-27 07:23:00,35.8,35.8,28.30,South,172,5.0,5.0,100,0.00,CLR,CLR,0.00,WeatherDisplay:10.37,2013-02-27 12:23:00,
2013-02-27 07:28:00,36.1,36.1,28.30,South,187,4.6,4.6,100,0.00,CLR,CLR,0.00,WeatherDisplay:10.37,2013-02-27 12:28:00,
2013-02-27 07:33:00,36.3,36.3,28.28,South,177,5.8,5.8,100,0.00,CLR,CLR,0.00,WeatherDisplay:10.37,2013-02-27 12:33:00,
2013-02-27 07:38:00,36.5,36.5,28.30,South,178,6.9,6.9,100,0.00,CLR,CLR,0.00,WeatherDisplay:10.37,2013-02-27 12:38:00,
2013-02-27 07:43:00,36.9,36.9,28.30,South,173,8.1,8.1,100,0.00,CLR,CLR,0.00,WeatherDisplay:10.37,2013-02-27 12:43:00,
2013-02-27 07:48:00,37.3,37.3,28.34,SSW,203,4.6,4.6,100,0.00,,,0.00,WeatherDisplay:10.37,2013-02-27 12:48:00,
2013-02-27 07:53:00,37.6,37.6,28.30,WSW,248,11.5,11.5,100,0.00,,,0.00,WeatherDisplay:10.37,2013-02-27 12:53:00,
2013-02-27 07:59:00,38.1,38.1,28.34,SSW,204,8.1,8.1,100,0.00,,,0.00,WeatherDisplay:10.37,2013-02-27 12:59:00,
2013-02-27 08:04:00,38.5,38.5,28.31,South,191,8.1,8.1,100,0.00,CLR,CLR,0.00,WeatherDisplay:10.37,2013-02-27 13:04:00,
2013-02-27 08:09:00,38.9,38.9,28.33,SW,220,8.1,8.1,100,0.00,CLR,CLR,0.00,WeatherDisplay:10.37,2013-02-27 13:09:00,
2013-02-27 08:14:00,39.4,39.4,28.32,WSW,252,11.5,11.5,100,0.00,CLR,CLR,0.00,WeatherDisplay:10.37,2013-02-27 13:14:00,
2013-02-27 08:19:00,39.9,39.4,28.31,WSW,249,5.8,5.8,98,0.00,CLR,CLR,0.00,WeatherDisplay:10.37,2013-02-27 13:19:00,
2013-02-27 08:24:00,40.3,39.3,28.32,SW,233,4.0,4.0,96,0.00,CLR,CLR,0.00,WeatherDisplay:10.37,2013-02-27 13:24:00,
2013-02-27 08:29:00,40.6,38.5,28.33,South,186,8.1,8.1,92,0.00,CLR,CLR,0.00,WeatherDisplay:10.37,2013-02-27 13:29:00,
2013-02-27 08:34:00,41.0,38.6,28.34,SSW,212,4.0,4.0,91,0.00,CLR,CLR,0.00,WeatherDisplay:10.37,2013-02-27 13:34:00,
2013-02-27 08:40:00,41.4,38.1,28.32,WSW,256,4.6,4.6,88,0.00,CLR,CLR,0.00,WeatherDisplay:10.37,2013-02-27 13:40:00,
2013-02-27 08:45:00,41.8,38.2,28.30,West,259,11.5,11.5,87,0.00,CLR,CLR,0.00,WeatherDisplay:10.37,2013-02-27 13:45:00,
2013-02-27 08:50:00,42.1,38.2,28.35,SW,219,8.1,8.1,86,0.00,CLR,CLR,0.00,WeatherDisplay:10.37,2013-02-27 13:50:00,
2013-02-27 08:55:00,42.3,37.8,28.32,SSW,210,7.0,7.0,84,0.00,CLR,CLR,0.00,WeatherDisplay:10.37,2013-02-27 13:55:00,
2013-02-27 09:00:00,42.8,38.3,28.35,SW,228,5.8,5.8,84,0.00,CLR,CLR,0.00,WeatherDisplay:10.37,2013-02-27 14:00:00,
2013-02-27 09:05:00,43.3,37.9,28.33,NW,313,10.4,10.4,81,0.00,CLR,CLR,0.00,WeatherDisplay:10.37,2013-02-27 14:05:00,
2013-02-27 09:10:00,43.9,37.8,28.34,SSE,155,10.4,10.4,79,0.00,CLR,CLR,0.00,WeatherDisplay:10.37,2013-02-27 14:10:00,
2013-02-27 09:16:00,44.4,38.6,28.33,WNW,288,9.0,9.0,80,0.00,CLR,CLR,0.00,WeatherDisplay:10.37,2013-02-27 14:16:00,
2013-02-27 09:21:00,44.2,36.1,28.36,WNW,282,9.2,9.2,73,0.00,CLR,CLR,0.00,WeatherDisplay:10.37,2013-02-27 14:21:00,
2013-02-27 09:26:00,43.8,35.7,28.42,West,265,6.9,6.9,73,0.00,CLR,CLR,0.00,WeatherDisplay:10.37,2013-02-27 14:26:00,
2013-02-27 09:32:00,43.3,35.2,28.34,SSW,204,14.0,14.0,73,0.00,CLR,CLR,0.00,WeatherDisplay:10.37,2013-02-27 14:32:00,
2013-02-27 09:37:00,43.2,35.1,28.34,SW,235,3.5,3.5,73,0.00,CLR,CLR,0.00,WeatherDisplay:10.37,2013-02-27 14:37:00,
2013-02-27 09:42:00,42.9,34.8,28.33,SW,221,15.0,15.0,73,0.00,CLR,CLR,0.00,WeatherDisplay:10.37,2013-02-27 14:42:00,
2013-02-27 09:47:00,42.6,34.5,28.34,SW,236,10.4,10.4,73,0.00,CLR,CLR,0.00,WeatherDisplay:10.37,2013-02-27 14:47:00,
2013-02-27 09:52:00,42.6,34.5,28.33,SSW,209,11.5,11.5,73,0.00,CLR,CLR,0.00,WeatherDisplay:10.37,2013-02-27 14:52:00,
2013-02-27 09:58:00,42.8,34.7,28.35,West,277,5.8,5.8,73,0.00,CLR,CLR,0.00,WeatherDisplay:10.37,2013-02-27 14:58:00,
2013-02-27 10:03:00,42.9,34.8,28.34,SSW,195,6.9,6.9,73,0.00,CLR,CLR,0.00,WeatherDisplay:10.37,2013-02-27 15:03:00,
2013-02-27 10:08:00,43.1,35.4,28.37,SW,235,8.1,8.1,74,0.00,CLR,CLR,0.00,WeatherDisplay:10.37,2013-02-27 15:08:00,
2013-02-27 10:13:00,43.2,35.1,28.35,WNW,297,8.1,8.1,73,0.00,CLR,CLR,0.00,WeatherDisplay:10.37,2013-02-27 15:13:00,
2013-02-27 10:18:00,43.2,35.1,28.37,West,260,6.9,6.9,73,0.00,CLR,CLR,0.00,WeatherDisplay:10.37,2013-02-27 15:18:00,
2013-02-27 10:23:00,43.5,35.4,28.34,West,270,8.1,8.1,73,0.00,CLR,CLR,0.00,WeatherDisplay:10.37,2013-02-27 15:23:00,
2013-02-27 10:28:00,43.8,35.7,28.41,SSW,212,3.5,3.5,73,0.00,CLR,CLR,0.00,WeatherDisplay:10.37,2013-02-27 15:28:00,
2013-02-27 10:34:00,44.2,36.1,28.36,South,185,11.5,11.5,73,0.00,CLR,CLR,0.00,WeatherDisplay:10.37,2013-02-27 15:34:00,
2013-02-27 10:39:00,44.3,36.2,28.38,West,273,3.5,3.5,73,0.00,CLR,CLR,0.00,WeatherDisplay:10.37,2013-02-27 15:39:00,
2013-02-27 10:44:00,44.4,36.3,28.39,WSW,237,6.9,6.9,73,0.00,CLR,CLR,0.00,WeatherDisplay:10.37,2013-02-27 15:44:00,
2013-02-27 10:49:00,44.7,36.6,28.38,SSW,197,4.6,4.6,73,0.00,CLR,CLR,0.00,WeatherDisplay:10.37,2013-02-27 15:49:00,
2013-02-27 10:55:00,44.6,37.8,28.36,SSW,200,10.0,10.0,77,0.00,CLR,CLR,0.00,WeatherDisplay:10.37,2013-02-27 15:55:00,
2013-02-27 11:00:00,44.6,38.2,28.37,WNW,285,11.5,11.5,78,0.00,CLR,CLR,0.00,WeatherDisplay:10.37,2013-02-27 16:00:00,
2013-02-27 11:05:00,45.1,37.6,28.37,WSW,251,10.4,10.4,75,0.00,CLR,CLR,0.00,WeatherDisplay:10.37,2013-02-27 16:05:00,
2013-02-27 11:10:00,45.1,39.0,28.37,WNW,303,11.5,11.5,79,0.00,CLR,CLR,0.00,WeatherDisplay:10.37,2013-02-27 16:10:00,
2013-02-27 11:15:00,45.5,38.4,28.40,NNW,329,10.4,10.4,76,0.00,CLR,CLR,0.00,WeatherDisplay:10.37,2013-02-27 16:15:00,
2013-02-27 11:20:00,45.7,38.9,28.34,West,262,8.1,8.1,77,0.00,CLR,CLR,0.00,WeatherDisplay:10.37,2013-02-27 16:20:00,
2013-02-27 11:26:00,46.4,38.6,28.36,WNW,282,11.5,11.5,74,0.00,CLR,CLR,0.00,WeatherDisplay:10.37,2013-02-27 16:26:00,
2013-02-27 11:31:00,46.9,38.7,28.33,SSW,212,9.2,9.2,73,0.00,CLR,CLR,0.00,WeatherDisplay:10.37,2013-02-27 16:31:00,
2013-02-27 11:36:00,46.8,38.6,28.36,WSW,250,11.5,11.5,73,0.00,CLR,CLR,0.00,WeatherDisplay:10.37,2013-02-27 16:36:00,
2013-02-27 11:41:00,47.1,39.6,28.35,WSW,249,6.9,6.9,75,0.00,CLR,CLR,0.00,WeatherDisplay:10.37,2013-02-27 16:41:00,
2013-02-27 11:46:00,47.1,38.2,28.35,West,268,11.5,11.5,71,0.00,CLR,CLR,0.00,WeatherDisplay:10.37,2013-02-27 16:46:00,
2013-02-27 11:52:00,46.5,38.3,28.36,South,190,5.8,5.8,73,0.00,CLR,CLR,0.00,WeatherDisplay:10.37,2013-02-27 16:52:00,
2013-02-27 11:57:00,46.6,38.1,28.33,West,265,9.2,9.2,72,0.00,CLR,CLR,0.00,WeatherDisplay:10.37,2013-02-27 16:57:00,
2013-02-27 12:02:00,46.6,38.4,28.33,West,266,8.1,8.1,73,0.00,CLR,CLR,0.00,WeatherDisplay:10.37,2013-02-27 17:02:00,
2013-02-27 12:07:00,46.7,38.5,28.35,South,190,8.1,8.1,73,0.00,CLR,CLR,0.00,WeatherDisplay:10.37,2013-02-27 17:07:00,
2013-02-27 12:12:00,46.7,38.9,28.34,South,172,4.6,4.6,74,0.00,CLR,CLR,0.00,WeatherDisplay:10.37,2013-02-27 17:12:00,
2013-02-27 12:18:00,47.2,39.0,28.35,SW,236,5.8,5.8,73,0.00,CLR,CLR,0.00,WeatherDisplay:10.37,2013-02-27 17:18:00,
2013-02-27 12:23:00,47.6,38.7,28.34,West,263,6.9,6.9,71,0.00,CLR,CLR,0.00,WeatherDisplay:10.37,2013-02-27 17:23:00,
2013-02-27 12:28:00,48.5,39.9,28.34,NW,314,5.8,5.8,72,0.00,CLR,CLR,0.00,WeatherDisplay:10.37,2013-02-27 17:28:00,
2013-02-27 12:33:00,49.1,40.5,28.29,South,182,7.0,7.0,72,0.00,CLR,CLR,0.00,WeatherDisplay:10.37,2013-02-27 17:33:00,
2013-02-27 12:38:00,49.8,41.1,28.33,SSW,192,8.1,8.1,72,0.00,CLR,CLR,0.00,WeatherDisplay:10.37,2013-02-27 17:38:00,
2013-02-27 12:44:00,50.5,41.1,28.32,SSW,199,8.1,8.1,70,0.00,CLR,CLR,0.00,WeatherDisplay:10.37,2013-02-27 17:44:00,
2013-02-27 12:49:00,50.8,41.7,28.34,SSE,167,8.1,8.1,71,0.00,CLR,CLR,0.00,WeatherDisplay:10.37,2013-02-27 17:49:00,
2013-02-27 12:54:00,50.8,41.0,28.36,SSW,204,8.1,8.1,69,0.00,CLR,CLR,0.00,WeatherDisplay:10.37,2013-02-27 17:54:00,
2013-02-27 12:59:00,50.8,41.4,28.33,South,188,12.7,12.7,70,0.00,CLR,CLR,0.00,WeatherDisplay:10.37,2013-02-27 17:59:00,
2013-02-27 13:04:00,51.4,41.9,28.31,South,183,13.8,13.8,70,0.00,CLR,CLR,0.00,WeatherDisplay:10.37,2013-02-27 18:04:00,
2013-02-27 13:10:00,51.3,40.7,28.32,South,187,11.0,11.0,67,0.00,CLR,CLR,0.00,WeatherDisplay:10.37,2013-02-27 18:10:00,
2013-02-27 13:15:00,51.1,40.1,28.33,SSW,196,11.5,11.5,66,0.00,CLR,CLR,0.00,WeatherDisplay:10.37,2013-02-27 18:15:00,
2013-02-27 13:20:00,50.6,40.0,28.34,SW,215,11.5,11.5,67,0.00,CLR,CLR,0.00,WeatherDisplay:10.37,2013-02-27 18:20:00,
2013-02-27 13:25:00,50.7,39.7,28.28,SSE,147,7.0,7.0,66,0.00,CLR,CLR,0.00,WeatherDisplay:10.37,2013-02-27 18:25:00,
2013-02-27 13:30:00,50.8,40.2,28.31,WSW,240,11.5,11.5,67,0.00,CLR,CLR,0.00,WeatherDisplay:10.37,2013-02-27 18:30:00,
2013-02-27 13:35:00,51.0,39.6,28.32,SSW,199,18.4,18.4,65,0.00,CLR,CLR,0.00,WeatherDisplay:10.37,2013-02-27 18:35:00,
2013-02-27 13:41:00,51.1,39.7,28.35,West,275,5.8,5.8,65,0.00,CLR,CLR,0.00,WeatherDisplay:10.37,2013-02-27 18:41:00,
2013-02-27 13:46:00,50.8,39.5,28.24,SSE,166,11.5,11.5,65,0.00,CLR,CLR,0.00,WeatherDisplay:10.37,2013-02-27 18:46:00,
2013-02-27 13:51:00,50.3,39.4,28.28,SW,225,5.8,5.8,66,0.00,CLR,CLR,0.00,WeatherDisplay:10.37,2013-02-27 18:51:00,
2013-02-27 13:56:00,50.1,38.8,28.29,West,267,6.0,6.0,65,0.00,CLR,CLR,0.00,WeatherDisplay:10.37,2013-02-27 18:56:00,
2013-02-27 14:01:00,49.8,38.5,28.28,West,275,8.1,8.1,65,0.00,CLR,CLR,0.00,WeatherDisplay:10.37,2013-02-27 19:01:00,
2013-02-27 14:07:00,50.2,39.7,28.27,South,181,5.8,5.8,67,0.00,CLR,CLR,0.00,WeatherDisplay:10.37,2013-02-27 19:07:00,
2013-02-27 14:12:00,50.5,39.9,28.26,SSW,192,8.1,8.1,67,0.00,CLR,CLR,0.00,WeatherDisplay:10.37,2013-02-27 19:12:00,
2013-02-27 14:17:00,51.2,40.2,28.26,South,191,14.0,14.0,66,0.00,CLR,CLR,0.00,WeatherDisplay:10.37,2013-02-27 19:17:00,
2013-02-27 14:22:00,51.2,39.4,28.26,South,184,12.7,12.7,64,0.00,CLR,CLR,0.00,WeatherDisplay:10.37,2013-02-27 19:22:00,
2013-02-27 14:27:00,51.5,40.1,28.28,SSE,158,12.7,12.7,65,0.00,CLR,CLR,0.00,WeatherDisplay:10.37,2013-02-27 19:27:00,
2013-02-27 14:33:00,51.5,39.7,28.28,SSW,197,8.1,8.1,64,0.00,CLR,CLR,0.00,WeatherDisplay:10.37,2013-02-27 19:33:00,
2013-02-27 14:38:00,51.8,40.4,28.26,South,190,10.4,10.4,65,0.00,CLR,CLR,0.00,WeatherDisplay:10.37,2013-02-27 19:38:00,
2013-02-27 14:43:00,52.0,40.6,28.27,South,182,10.0,10.0,65,0.00,CLR,CLR,0.00,WeatherDisplay:10.37,2013-02-27 19:43:00,
2013-02-27 14:48:00,52.2,40.0,28.25,South,188,11.5,11.5,63,0.00,CLR,CLR,0.00,WeatherDisplay:10.37,2013-02-27 19:48:00,
2013-02-27 14:54:00,52.2,40.4,28.25,South,188,15.0,15.0,64,0.00,CLR,CLR,0.00,WeatherDisplay:10.37,2013-02-27 19:54:00,
2013-02-27 14:59:00,52.2,40.4,28.30,SSE,167,11.5,11.5,64,0.00,CLR,CLR,0.00,WeatherDisplay:10.37,2013-02-27 19:59:00,
2013-02-27 15:04:00,52.1,40.3,28.25,SSW,202,13.8,13.8,64,0.00,CLR,CLR,0.00,WeatherDisplay:10.37,2013-02-27 20:04:00,
2013-02-27 15:10:00,52.0,40.2,28.25,SSW,206,11.5,11.5,64,0.00,CLR,CLR,0.00,WeatherDisplay:10.37,2013-02-27 20:10:00,
2013-02-27 15:15:00,51.8,40.0,28.41,South,189,13.8,13.8,64,0.00,CLR,CLR,0.00,WeatherDisplay:10.37,2013-02-27 20:15:00,
2013-02-27 15:20:00,51.9,40.5,28.34,South,178,12.7,12.7,65,0.00,CLR,CLR,0.00,WeatherDisplay:10.37,2013-02-27 20:20:00,
2013-02-27 15:25:00,51.8,40.0,28.36,SE,140,11.5,11.5,64,0.00,CLR,CLR,0.00,WeatherDisplay:10.37,2013-02-27 20:25:00,
2013-02-27 15:31:00,51.7,40.3,28.34,SSW,208,9.2,9.2,65,0.00,CLR,CLR,0.00,WeatherDisplay:10.37,2013-02-27 20:31:00,
2013-02-27 15:36:00,51.6,40.2,28.37,South,176,6.9,6.9,65,0.00,CLR,CLR,0.00,WeatherDisplay:10.37,2013-02-27 20:36:00,
2013-02-27 15:41:00,51.6,40.2,28.33,SSW,199,13.8,13.8,65,0.00,CLR,CLR,0.00,WeatherDisplay:10.37,2013-02-27 20:41:00,
2013-02-27 15:46:00,51.5,39.7,28.43,South,190,8.0,8.0,64,0.00,CLR,CLR,0.00,WeatherDisplay:10.37,2013-02-27 20:46:00,
2013-02-27 15:52:00,51.4,40.0,28.26,SSW,207,10.4,10.4,65,0.00,CLR,CLR,0.00,WeatherDisplay:10.37,2013-02-27 20:52:00,
2013-02-27 15:57:00,51.4,40.0,28.34,SSW,201,4.6,4.6,65,0.00,CLR,CLR,0.00,WeatherDisplay:10.37,2013-02-27 20:57:00,
2013-02-27 16:02:00,51.5,40.1,28.24,SSE,160,11.5,11.5,65,0.00,CLR,CLR,0.00,WeatherDisplay:10.37,2013-02-27 21:02:00,
2013-02-27 16:07:00,51.7,40.3,28.25,SSW,198,9.0,9.0,65,0.00,CLR,CLR,0.00,WeatherDisplay:10.37,2013-02-27 21:07:00,
2013-02-27 16:12:00,51.9,40.5,28.25,SSE,162,12.7,12.7,65,0.00,CLR,CLR,0.00,WeatherDisplay:10.37,2013-02-27 21:12:00,
2013-02-27 16:18:00,52.0,40.2,28.33,SSE,168,11.5,11.5,64,0.00,CLR,CLR,0.00,WeatherDisplay:10.37,2013-02-27 21:18:00,
2013-02-27 16:23:00,52.1,40.3,28.37,South,187,9.2,9.2,64,0.00,CLR,CLR,0.00,WeatherDisplay:10.37,2013-02-27 21:23:00,
2013-02-27 16:28:00,52.0,39.8,28.33,SSE,163,11.5,11.5,63,0.00,CLR,CLR,0.00,WeatherDisplay:10.37,2013-02-27 21:28:00,
2013-02-27 16:34:00,51.9,40.1,28.40,South,177,11.0,11.0,64,0.00,CLR,CLR,0.00,WeatherDisplay:10.37,2013-02-27 21:34:00,
2013-02-27 16:39:00,51.9,40.1,28.25,SSW,205,11.5,11.5,64,0.00,CLR,CLR,0.00,WeatherDisplay:10.37,2013-02-27 21:39:00,
2013-02-27 16:44:00,51.7,39.9,28.24,SSW,197,9.2,9.2,64,0.00,CLR,CLR,0.00,WeatherDisplay:10.37,2013-02-27 21:44:00,
2013-02-27 16:49:00,51.6,40.2,28.45,SW,215,15.0,15.0,65,0.00,CLR,CLR,0.00,WeatherDisplay:10.37,2013-02-27 21:49:00,
2013-02-27 16:54:00,51.4,40.0,28.23,South,182,11.5,11.5,65,0.00,CLR,CLR,0.00,WeatherDisplay:10.37,2013-02-27 21:54:00,
2013-02-27 17:00:00,51.3,40.3,28.24,SW,222,10.4,10.4,66,0.00,CLR,CLR,0.00,WeatherDisplay:10.37,2013-02-27 22:00:00,
2013-02-27 17:05:00,51.1,40.5,28.23,South,177,5.8,5.8,67,0.00,CLR,CLR,0.00,WeatherDisplay:10.37,2013-02-27 22:05:00,
2013-02-27 17:10:00,50.7,40.1,28.24,South,178,6.9,6.9,67,0.00,CLR,CLR,0.00,WeatherDisplay:10.37,2013-02-27 22:10:00,
2013-02-27 17:15:00,50.3,40.1,28.24,South,184,10.4,10.4,68,0.00,CLR,CLR,0.00,WeatherDisplay:10.37,2013-02-27 22:15:00,
2013-02-27 17:20:00,50.2,40.0,28.23,SSE,159,11.5,11.5,68,0.00,CLR,CLR,0.00,WeatherDisplay:10.37,2013-02-27 22:20:00,
2013-02-27 17:26:00,50.0,40.2,28.24,SSE,167,11.5,11.5,69,0.00,CLR,CLR,0.00,WeatherDisplay:10.37,2013-02-27 22:26:00,
2013-02-27 17:31:00,49.9,40.1,28.25,South,185,16.1,16.1,69,0.00,CLR,CLR,0.00,WeatherDisplay:10.37,2013-02-27 22:31:00,
2013-02-27 17:36:00,49.7,40.3,28.25,South,170,11.5,11.5,70,0.00,CLR,CLR,0.00,WeatherDisplay:10.37,2013-02-27 22:36:00,
2013-02-27 17:41:00,49.5,40.1,28.25,South,175,11.5,11.5,70,0.00,CLR,CLR,0.00,WeatherDisplay:10.37,2013-02-27 22:41:00,
2013-02-27 17:47:00,49.2,40.2,28.26,South,174,11.5,11.5,71,0.00,CLR,CLR,0.00,WeatherDisplay:10.37,2013-02-27 22:47:00,
2013-02-27 17:51:00,48.9,39.9,28.24,South,173,11.5,11.5,71,0.00,CLR,CLR,0.00,WeatherDisplay:10.37,2013-02-27 22:51:00,
2013-02-27 17:57:00,48.6,40.0,28.27,SSW,193,6.9,6.9,72,0.00,CLR,CLR,0.00,WeatherDisplay:10.37,2013-02-27 22:57:00,
2013-02-27 18:02:00,48.3,39.3,28.13,South,175,11.5,11.5,71,0.00,CLR,CLR,0.00,WeatherDisplay:10.37,2013-02-27 23:02:00,
2013-02-27 18:07:00,48.0,39.4,28.13,South,179,5.8,5.8,72,0.00,CLR,CLR,0.00,WeatherDisplay:10.37,2013-02-27 23:07:00,
2013-02-27 18:12:00,47.8,39.2,28.13,South,170,9.2,9.2,72,0.00,CLR,CLR,0.00,WeatherDisplay:10.37,2013-02-27 23:12:00,
2013-02-27 18:18:00,47.5,38.9,28.13,South,176,5.8,5.8,72,0.00,CLR,CLR,0.00,WeatherDisplay:10.37,2013-02-27 23:18:00,
2013-02-27 18:23:00,47.1,38.9,28.14,SSE,168,5.8,5.8,73,0.00,CLR,CLR,0.00,WeatherDisplay:10.37,2013-02-27 23:23:00,
2013-02-27 18:28:00,46.7,38.5,28.14,South,177,4.6,4.6,73,0.00,CLR,CLR,0.00,WeatherDisplay:10.37,2013-02-27 23:28:00,
2013-02-27 18:33:00,46.3,38.5,28.14,South,174,4.6,4.6,74,0.00,CLR,CLR,0.00,WeatherDisplay:10.37,2013-02-27 23:33:00,
2013-02-27 18:39:00,45.9,38.4,28.13,South,185,4.6,4.6,75,0.00,CLR,CLR,0.00,WeatherDisplay:10.37,2013-02-27 23:39:00,
2013-02-27 18:44:00,45.7,38.2,28.13,South,181,4.6,4.6,75,0.00,CLR,CLR,0.00,WeatherDisplay:10.37,2013-02-27 23:44:00,
2013-02-27 18:49:00,45.4,37.9,28.13,South,171,3.5,3.5,75,0.00,CLR,CLR,0.00,WeatherDisplay:10.37,2013-02-27 23:49:00,
2013-02-27 18:54:00,45.3,38.2,28.13,South,175,4.0,4.0,76,0.00,CLR,CLR,0.00,WeatherDisplay:10.37,2013-02-27 23:54:00,
2013-02-27 18:59:00,45.2,38.1,28.14,SSE,150,3.5,3.5,76,0.00,CLR,CLR,0.00,WeatherDisplay:10.37,2013-02-27 23:59:00,
2013-02-27 19:04:00,45.0,37.9,28.13,SSE,159,2.3,2.3,76,0.00,CLR,CLR,0.00,WeatherDisplay:10.37,2013-02-28 00:04:00,
2013-02-27 19:09:00,44.8,38.0,28.14,South,191,4.6,4.6,77,0.00,CLR,CLR,0.00,WeatherDisplay:10.37,2013-02-28 00:09:00,
2013-02-27 19:14:00,44.7,37.9,28.13,South,191,3.5,3.5,77,0.00,CLR,CLR,0.00,WeatherDisplay:10.37,2013-02-28 00:14:00,
2013-02-27 19:20:00,44.5,37.7,28.13,South,189,4.0,4.0,77,0.00,CLR,CLR,0.00,WeatherDisplay:10.37,2013-02-28 00:20:00,
2013-02-27 19:25:00,44.5,38.1,28.13,SSW,194,5.0,5.0,78,0.00,CLR,CLR,0.00,WeatherDisplay:10.37,2013-02-28 00:25:00,
2013-02-27 19:30:00,44.5,38.1,28.14,South,174,4.6,4.6,78,0.00,CLR,CLR,0.00,WeatherDisplay:10.37,2013-02-28 00:30:00,
2013-02-27 19:35:00,44.5,38.1,28.13,South,175,5.0,5.0,78,0.00,CLR,CLR,0.00,WeatherDisplay:10.37,2013-02-28 00:35:00,
2013-02-27 19:41:00,44.5,38.1,28.14,South,174,3.5,3.5,78,0.00,CLR,CLR,0.00,WeatherDisplay:10.37,2013-02-28 00:41:00,
2013-02-27 19:46:00,44.5,38.4,28.13,South,174,3.5,3.5,79,0.00,CLR,CLR,0.00,WeatherDisplay:10.37,2013-02-28 00:46:00,
2013-02-27 19:51:00,44.4,38.0,28.14,South,177,3.5,3.5,78,0.00,CLR,CLR,0.00,WeatherDisplay:10.37,2013-02-28 00:51:00,
2013-02-27 19:56:00,44.5,38.1,28.13,South,172,4.6,4.6,78,0.00,CLR,CLR,0.00,WeatherDisplay:10.37,2013-02-28 00:56:00,
2013-02-27 20:01:00,44.7,38.3,28.14,SSW,204,4.6,4.6,78,0.00,CLR,CLR,0.00,WeatherDisplay:10.37,2013-02-28 01:01:00,
2013-02-27 20:07:00,44.8,38.4,28.14,SSW,198,5.8,5.8,78,0.00,CLR,CLR,0.00,WeatherDisplay:10.37,2013-02-28 01:07:00,
2013-02-27 20:12:00,45.0,38.6,28.13,South,176,2.3,2.3,78,0.00,CLR,CLR,0.00,WeatherDisplay:10.37,2013-02-28 01:12:00,
2013-02-27 20:17:00,45.3,38.8,28.15,SW,234,3.5,3.6,78,0.00,CLR,CLR,0.00,WeatherDisplay:10.37,2013-02-28 01:17:00,
2013-02-27 20:22:00,45.3,38.5,28.14,SW,235,3.5,3.5,77,0.00,CLR,CLR,0.00,WeatherDisplay:10.37,2013-02-28 01:22:00,
2013-02-27 20:28:00,45.2,38.4,28.13,WSW,239,4.6,4.6,77,0.00,CLR,CLR,0.00,WeatherDisplay:10.37,2013-02-28 01:28:00,
2013-02-27 20:33:00,45.2,38.7,28.14,WSW,251,4.6,4.6,78,0.00,CLR,CLR,0.00,WeatherDisplay:10.37,2013-02-28 01:33:00,
2013-02-27 20:38:00,45.0,38.6,28.14,West,277,3.5,3.5,78,0.00,CLR,CLR,0.00,WeatherDisplay:10.37,2013-02-28 01:38:00,
2013-02-27 20:43:00,44.8,39.3,28.15,SSW,196,6.9,6.9,81,0.01,RA,RA,0.01,WeatherDisplay:10.37,2013-02-28 01:43:00,
2013-02-27 20:48:00,44.6,40.4,28.16,SSW,211,5.0,5.0,85,0.03,RA,RA,0.03,WeatherDisplay:10.37,2013-02-28 01:48:00,
2013-02-27 20:54:00,44.3,40.7,28.16,South,179,10.4,10.4,87,0.04,RA,RA,0.04,WeatherDisplay:10.37,2013-02-28 01:54:00,
2013-02-27 20:59:00,44.1,40.8,28.16,South,178,10.4,10.4,88,0.05,RA,RA,0.05,WeatherDisplay:10.37,2013-02-28 01:59:00,
2013-02-27 21:04:00,43.8,41.1,28.16,SSW,207,9.2,9.2,90,0.06,RA,RA,0.06,WeatherDisplay:10.37,2013-02-28 02:04:00,
2013-02-27 21:09:00,43.6,40.9,28.17,WSW,256,4.6,4.6,90,0.06,RA,RA,0.06,WeatherDisplay:10.37,2013-02-28 02:09:00,
2013-02-27 21:14:00,43.4,40.4,28.16,SSW,195,6.0,6.0,89,0.06,,,0.06,WeatherDisplay:10.37,2013-02-28 02:14:00,
2013-02-27 21:19:00,43.4,39.8,28.16,West,270,6.0,6.0,87,0.06,CLR,CLR,0.06,WeatherDisplay:10.37,2013-02-28 02:19:00,
2013-02-27 21:25:00,43.2,39.0,28.16,WNW,283,4.6,4.6,85,0.06,CLR,CLR,0.06,WeatherDisplay:10.37,2013-02-28 02:25:00,
2013-02-27 21:30:00,43.0,36.9,28.15,SW,229,9.2,9.2,79,0.06,CLR,CLR,0.06,WeatherDisplay:10.37,2013-02-28 02:30:00,
2013-02-27 21:35:00,42.8,37.7,28.16,West,275,4.6,4.6,82,0.06,CLR,CLR,0.06,WeatherDisplay:10.37,2013-02-28 02:35:00,
2013-02-27 21:40:00,42.6,38.1,28.15,SSW,201,3.5,3.5,84,0.06,CLR,CLR,0.06,WeatherDisplay:10.37,2013-02-28 02:40:00,
2013-02-27 21:45:00,42.5,36.4,28.14,WSW,243,3.5,3.8,79,0.04,CLR,CLR,0.06,WeatherDisplay:10.37,2013-02-28 02:45:00,
2013-02-27 21:50:00,42.4,37.0,28.15,West,272,3.5,3.5,81,0.02,CLR,CLR,0.06,WeatherDisplay:10.37,2013-02-28 02:50:00,
2013-02-27 21:56:00,42.2,37.7,28.14,SW,229,4.6,4.6,84,0.01,CLR,CLR,0.06,WeatherDisplay:10.37,2013-02-28 02:56:00,
2013-02-27 22:01:00,42.1,37.6,28.15,SW,230,8.1,8.1,84,0.01,CLR,CLR,0.06,WeatherDisplay:10.37,2013-02-28 03:01:00,
2013-02-27 22:06:00,42.0,37.2,28.14,SSW,210,6.9,6.9,83,0.00,CLR,CLR,0.06,WeatherDisplay:10.37,2013-02-28 03:06:00,
2013-02-27 22:11:00,41.9,36.8,28.14,SSW,210,10.4,10.4,82,0.00,CLR,CLR,0.06,WeatherDisplay:10.37,2013-02-28 03:11:00,
2013-02-27 22:17:00,41.8,36.7,28.14,South,179,6.9,6.9,82,0.00,CLR,CLR,0.06,WeatherDisplay:10.37,2013-02-28 03:17:00,
2013-02-27 22:22:00,41.7,36.3,28.14,SSW,200,6.9,6.9,81,0.00,CLR,CLR,0.06,WeatherDisplay:10.37,2013-02-28 03:22:00,
2013-02-27 22:27:00,41.6,36.2,28.14,South,191,6.9,6.9,81,0.00,CLR,CLR,0.06,WeatherDisplay:10.37,2013-02-28 03:27:00,
2013-02-27 22:32:00,41.6,35.9,28.14,SW,217,6.9,6.9,80,0.00,CLR,CLR,0.06,WeatherDisplay:10.37,2013-02-28 03:32:00,
2013-02-27 22:37:00,41.6,35.9,28.14,SSW,208,10.4,10.4,80,0.00,CLR,CLR,0.06,WeatherDisplay:10.37,2013-02-28 03:37:00,
2013-02-27 22:42:00,41.5,35.8,28.14,SSE,155,8.1,8.1,80,0.00,CLR,CLR,0.06,WeatherDisplay:10.37,2013-02-28 03:42:00,
2013-02-27 22:47:00,41.6,35.6,28.14,WSW,250,7.0,7.0,79,0.00,CLR,CLR,0.06,WeatherDisplay:10.37,2013-02-28 03:47:00,
2013-02-27 22:52:00,41.9,35.9,28.14,SW,225,11.5,11.5,79,0.00,CLR,CLR,0.06,WeatherDisplay:10.37,2013-02-28 03:52:00,
2013-02-27 22:58:00,42.0,35.6,28.14,WNW,285,13.8,13.8,78,0.00,CLR,CLR,0.06,WeatherDisplay:10.37,2013-02-28 03:58:00,
2013-02-27 23:03:00,42.0,35.6,28.14,SSW,210,13.8,13.8,78,0.00,CLR,CLR,0.06,WeatherDisplay:10.37,2013-02-28 04:03:00,
2013-02-27 23:08:00,41.9,35.5,28.14,WSW,247,15.0,15.0,78,0.00,CLR,CLR,0.06,WeatherDisplay:10.37,2013-02-28 04:08:00,
2013-02-27 23:13:00,41.8,35.4,28.14,SW,219,10.4,10.4,78,0.00,CLR,CLR,0.06,WeatherDisplay:10.37,2013-02-28 04:13:00,
2013-02-27 23:18:00,41.6,35.2,28.14,SW,214,9.2,9.2,78,0.00,CLR,CLR,0.06,WeatherDisplay:10.37,2013-02-28 04:18:00,
2013-02-27 23:24:00,41.4,35.1,28.14,SSW,210,5.8,5.8,78,0.00,CLR,CLR,0.06,WeatherDisplay:10.37,2013-02-28 04:24:00,
2013-02-27 23:29:00,41.2,34.5,28.13,WSW,256,8.1,8.1,77,0.00,CLR,CLR,0.06,WeatherDisplay:10.37,2013-02-28 04:29:00,
2013-02-27 23:34:00,41.1,34.8,28.13,South,186,6.9,6.9,78,0.00,CLR,CLR,0.06,WeatherDisplay:10.37,2013-02-28 04:34:00,
2013-02-27 23:39:00,40.9,34.2,28.13,SW,221,16.1,16.1,77,0.00,CLR,CLR,0.06,WeatherDisplay:10.37,2013-02-28 04:39:00,
2013-02-27 23:44:00,40.8,33.2,28.13,WSW,256,10.4,10.4,74,0.00,CLR,CLR,0.06,WeatherDisplay:10.37,2013-02-28 04:44:00,
2013-02-27 23:49:00,40.6,31.9,28.13,South,173,3.5,3.5,71,0.00,CLR,CLR,0.06,WeatherDisplay:10.37,2013-02-28 04:49:00,
2013-02-27 23:55:00,40.5,33.2,28.13,SW,231,8.1,8.1,75,0.00,CLR,CLR,0.06,WeatherDisplay:10.37,2013-02-28 04:55:00,